Billsburg, South Dakota
Current Conditions -  °F | °C
As of 9:42 AM on Monday 24 Nov 2014 (Local Time) from KRCA Reporting Station
Light Snow Light Snow  
Wind Chill: 18°   Ceiling: 900
Heat Index: 27°   Visibility: 0.88mi
Dew Point: 25°   Wind: 8mph
Humidity: 93%   Direction: 30°NNE
Pressure: 29.86"   Gusts: NA
Location:  44.4194°N, 101.806°W
Report Text: KRCA 241642Z 03007KT 7/8SM -SN BKN009 OVC016 M03/M04 A2986 RMK AO2A SNB1556E1605B1618 CIG 009V015 BKN V SCT CIG 005 RWY13 $
Loading
Personal Weather Stations






























Interactive Weather Map New forecast layout! Learn more

10-Day Weather Forecast

Advertisements
Track Severe Weather on mobile